sensor_id;sensor_type;location;lat;lon;timestamp;pressure;altitude;pressure_sealevel;temperature;humidity
15050;BME280;7622;42.724;23.250;2023-01-28T00:00:36;94009.75;;;0.45;100.00
15050;BME280;7622;42.724;23.250;2023-01-28T00:03:04;94016.09;;;0.52;100.00
15050;BME280;7622;42.724;23.250;2023-01-28T00:05:31;94016.34;;;0.61;100.00
15050;BME280;7622;42.724;23.250;2023-01-28T00:07:57;94016.09;;;0.52;100.00
15050;BME280;7622;42.724;23.250;2023-01-28T00:10:24;94007.19;;;0.45;100.00
15050;BME280;7622;42.724;23.250;2023-01-28T00:12:51;94026.91;;;0.43;100.00
15050;BME280;7622;42.724;23.250;2023-01-28T00:15:18;94034.16;;;0.49;100.00
15050;BME280;7622;42.724;23.250;2023-01-28T00:17:44;94030.09;;;0.46;100.00
15050;BME280;7622;42.724;23.250;2023-01-28T00:20:13;94036.34;;;0.55;100.00
15050;BME280;7622;42.724;23.250;2023-01-28T00:22:39;94045.94;;;0.64;100.00
15050;BME280;7622;42.724;23.250;2023-01-28T00:25:06;94040.56;;;0.68;100.00
15050;BME280;7622;42.724;23.250;2023-01-28T00:27:33;94035.72;;;0.64;100.00
15050;BME280;7622;42.724;23.250;2023-01-28T00:30:00;94043.72;;;0.59;100.00
15050;BME280;7622;42.724;23.250;2023-01-28T00:32:26;94045.84;;;0.53;100.00
15050;BME280;7622;42.724;23.250;2023-01-28T00:34:53;94048.41;;;0.53;100.00
15050;BME280;7622;42.724;23.250;2023-01-28T00:37:22;93980.28;;;0.14;100.00
15050;BME280;7622;42.724;23.250;2023-01-28T00:39:48;94043.72;;;0.59;100.00
15050;BME280;7622;42.724;23.250;2023-01-28T00:42:15;94053.28;;;0.56;100.00
15050;BME280;7622;42.724;23.250;2023-01-28T00:44:42;94051.00;;;0.38;100.00
15050;BME280;7622;42.724;23.250;2023-01-28T00:47:09;94043.03;;;0.43;100.00
15050;BME280;7622;42.724;23.250;2023-01-28T00:49:35;94047.47;;;0.41;100.00
15050;BME280;7622;42.724;23.250;2023-01-28T00:52:02;94054.44;;;0.25;100.00
15050;BME280;7622;42.724;23.250;2023-01-28T00:54:31;94054.91;;;0.44;100.00
15050;BME280;7622;42.724;23.250;2023-01-28T00:56:57;94058.38;;;0.43;100.00
15050;BME280;7622;42.724;23.250;2023-01-28T00:59:24;94056.72;;;0.42;100.00
15050;BME280;7622;42.724;23.250;2023-01-28T01:01:52;94053.34;;;0.42;100.00
15050;BME280;7622;42.724;23.250;2023-01-28T01:04:37;94063.44;;;0.30;100.00
15050;BME280;7622;42.724;23.250;2023-01-28T01:07:03;94057.59;;;0.28;100.00
15050;BME280;7622;42.724;23.250;2023-01-28T01:09:32;94053.81;;;0.21;100.00
15050;BME280;7622;42.724;23.250;2023-01-28T01:11:58;94057.44;;;0.31;100.00
15050;BME280;7622;42.724;23.250;2023-01-28T01:14:25;94061.53;;;0.34;100.00
15050;BME280;7622;42.724;23.250;2023-01-28T01:16:52;94058.69;;;0.38;100.00
15050;BME280;7622;42.724;23.250;2023-01-28T01:19:19;94059.19;;;0.44;100.00
15050;BME280;7622;42.724;23.250;2023-01-28T01:21:45;94057.47;;;0.44;100.00
15050;BME280;7622;42.724;23.250;2023-01-28T01:24:15;94045.44;;;0.19;100.00
15050;BME280;7622;42.724;23.250;2023-01-28T01:26:43;94061.22;;;0.38;100.00
15050;BME280;7622;42.724;23.250;2023-01-28T01:29:10;94070.94;;;0.33;100.00
15050;BME280;7622;42.724;23.250;2023-01-28T01:31:37;94068.56;;;0.30;100.00
15050;BME280;7622;42.724;23.250;2023-01-28T01:34:04;94071.88;;;0.45;100.00
15050;BME280;7622;42.724;23.250;2023-01-28T01:36:31;94064.19;;;0.32;100.00
15050;BME280;7622;42.724;23.250;2023-01-28T01:38:57;94075.13;;;0.34;100.00
15050;BME280;7622;42.724;23.250;2023-01-28T01:41:27;94070.00;;;0.34;100.00
15050;BME280;7622;42.724;23.250;2023-01-28T01:43:57;94071.31;;;0.27;100.00
15050;BME280;7622;42.724;23.250;2023-01-28T01:46:30;94066.53;;;0.35;100.00
15050;BME280;7622;42.724;23.250;2023-01-28T01:49:04;94078.78;;;0.30;100.00
15050;BME280;7622;42.724;23.250;2023-01-28T01:51:33;94079.16;;;0.24;100.00
15050;BME280;7622;42.724;23.250;2023-01-28T01:54:02;94070.19;;;0.31;100.00
15050;BME280;7622;42.724;23.250;2023-01-28T01:56:34;94077.56;;;0.36;100.00
15050;BME280;7622;42.724;23.250;2023-01-28T01:59:08;94071.84;;;0.32;100.00
15050;BME280;7622;42.724;23.250;2023-01-28T02:01:37;94067.13;;;0.26;100.00
15050;BME280;7622;42.724;23.250;2023-01-28T02:04:08;94075.13;;;0.34;100.00
15050;BME280;7622;42.724;23.250;2023-01-28T02:06:36;94009.00;;;-0.10;100.00
15050;BME280;7622;42.724;23.250;2023-01-28T02:09:19;94048.88;;;0.06;100.00
15050;BME280;7622;42.724;23.250;2023-01-28T02:11:47;94078.50;;;0.21;100.00
15050;BME280;7622;42.724;23.250;2023-01-28T02:14:15;94071.97;;;0.17;100.00
15050;BME280;7622;42.724;23.250;2023-01-28T02:16:42;94077.91;;;0.17;100.00
15050;BME280;7622;42.724;23.250;2023-01-28T02:19:10;94083.69;;;0.33;100.00
15050;BME280;7622;42.724;23.250;2023-01-28T02:22:05;94085.69;;;0.28;100.00
15050;BME280;7622;42.724;23.250;2023-01-28T02:24:54;94085.78;;;0.41;100.00
15050;BME280;7622;42.724;23.250;2023-01-28T02:27:32;94092.59;;;0.41;100.00
15050;BME280;7622;42.724;23.250;2023-01-28T02:30:06;94088.81;;;0.33;100.00
15050;BME280;7622;42.724;23.250;2023-01-28T02:32:39;94087.81;;;0.49;100.00
15050;BME280;7622;42.724;23.250;2023-01-28T02:35:13;94080.03;;;0.37;100.00
15050;BME280;7622;42.724;23.250;2023-01-28T02:37:45;94082.41;;;0.41;100.00
15050;BME280;7622;42.724;23.250;2023-01-28T02:40:16;94084.25;;;0.24;100.00
15050;BME280;7622;42.724;23.250;2023-01-28T02:42:45;94075.06;;;0.22;100.00
15050;BME280;7622;42.724;23.250;2023-01-28T02:45:19;94091.94;;;0.24;100.00
15050;BME280;7622;42.724;23.250;2023-01-28T02:47:47;94087.56;;;0.26;100.00
15050;BME280;7622;42.724;23.250;2023-01-28T02:50:23;94089.56;;;0.21;100.00
15050;BME280;7622;42.724;23.250;2023-01-28T02:52:59;94089.75;;;0.18;100.00
15050;BME280;7622;42.724;23.250;2023-01-28T02:55:52;94087.78;;;0.09;100.00
15050;BME280;7622;42.724;23.250;2023-01-28T02:58:26;94097.03;;;0.24;100.00
15050;BME280;7622;42.724;23.250;2023-01-28T03:01:04;94092.31;;;0.18;100.00
15050;BME280;7622;42.724;23.250;2023-01-28T03:03:41;94094.34;;;0.13;100.00
15050;BME280;7622;42.724;23.250;2023-01-28T03:06:11;94096.91;;;0.13;100.00
15050;BME280;7622;42.724;23.250;2023-01-28T03:08:43;94067.22;;;-0.02;100.00
15050;BME280;7622;42.724;23.250;2023-01-28T03:11:31;94088.69;;;0.08;100.00
15050;BME280;7622;42.724;23.250;2023-01-28T03:14:18;94095.25;;;0.12;100.00
15050;BME280;7622;42.724;23.250;2023-01-28T03:17:07;94096.72;;;0.02;100.00
15050;BME280;7622;42.724;23.250;2023-01-28T03:19:55;94098.16;;;0.20;100.00
15050;BME280;7622;42.724;23.250;2023-01-28T03:22:40;94104.69;;;0.24;100.00
15050;BME280;7622;42.724;23.250;2023-01-28T03:25:27;94097.34;;;0.20;100.00
15050;BME280;7622;42.724;23.250;2023-01-28T03:28:14;94104.88;;;0.21;100.00
15050;BME280;7622;42.724;23.250;2023-01-28T03:31:04;94098.16;;;0.20;100.00
15050;BME280;7622;42.724;23.250;2023-01-28T03:33:51;94103.81;;;0.11;100.00
15050;BME280;7622;42.724;23.250;2023-01-28T03:36:36;94102.00;;;0.13;100.00
15050;BME280;7622;42.724;23.250;2023-01-28T03:39:16;94099.19;;;0.04;100.00
15050;BME280;7622;42.724;23.250;2023-01-28T03:41:55;94099.81;;;0.07;100.00
15050;BME280;7622;42.724;23.250;2023-01-28T03:44:22;94088.16;;;0.03;100.00
15050;BME280;7622;42.724;23.250;2023-01-28T03:47:08;94102.34;;;0.07;100.00
15050;BME280;7622;42.724;23.250;2023-01-28T03:49:38;94092.44;;;0.03;100.00
15050;BME280;7622;42.724;23.250;2023-01-28T03:52:04;94110.31;;;0.03;100.00
15050;BME280;7622;42.724;23.250;2023-01-28T03:54:31;94102.09;;;0.12;100.00
15050;BME280;7622;42.724;23.250;2023-01-28T03:56:58;94114.59;;;0.02;100.00
15050;BME280;7622;42.724;23.250;2023-01-28T03:59:24;94115.31;;;0.04;100.00
15050;BME280;7622;42.724;23.250;2023-01-28T04:01:51;94111.69;;;-0.06;100.00
15050;BME280;7622;42.724;23.250;2023-01-28T04:04:19;94108.22;;;-0.05;100.00
15050;BME280;7622;42.724;23.250;2023-01-28T04:06:51;94121.53;;;0.00;100.00
15050;BME280;7622;42.724;23.250;2023-01-28T04:09:18;94113.81;;;0.14;100.00
15050;BME280;7622;42.724;23.250;2023-01-28T04:11:46;94094.34;;;-0.28;100.00
15050;BME280;7622;42.724;23.250;2023-01-28T04:14:12;94120.97;;;-0.05;100.00
15050;BME280;7622;42.724;23.250;2023-01-28T04:16:39;94114.69;;;0.00;100.00
15050;BME280;7622;42.724;23.250;2023-01-28T04:19:07;94137.41;;;-0.09;100.00
15050;BME280;7622;42.724;23.250;2023-01-28T04:21:34;94134.63;;;0.08;100.00
15050;BME280;7622;42.724;23.250;2023-01-28T04:24:02;94117.38;;;-0.15;100.00
15050;BME280;7622;42.724;23.250;2023-01-28T04:26:29;94136.84;;;0.00;100.00
15050;BME280;7622;42.724;23.250;2023-01-28T04:28:56;94131.94;;;-0.03;100.00
15050;BME280;7622;42.724;23.250;2023-01-28T04:31:23;94137.03;;;-0.03;100.00
15050;BME280;7622;42.724;23.250;2023-01-28T04:33:49;94130.50;;;-0.07;100.00
15050;BME280;7622;42.724;23.250;2023-01-28T04:36:16;94147.63;;;-0.09;100.00
15050;BME280;7622;42.724;23.250;2023-01-28T04:38:43;94148.22;;;0.09;100.00
15050;BME280;7622;42.724;23.250;2023-01-28T04:41:11;94154.34;;;0.06;100.00
15050;BME280;7622;42.724;23.250;2023-01-28T04:43:38;94154.72;;;0.00;100.00
15050;BME280;7622;42.724;23.250;2023-01-28T04:46:05;94158.72;;;-0.10;100.00
15050;BME280;7622;42.724;23.250;2023-01-28T04:48:32;94162.94;;;-0.09;100.00
15050;BME280;7622;42.724;23.250;2023-01-28T04:51:01;94161.44;;;-0.13;100.00
15050;BME280;7622;42.724;23.250;2023-01-28T04:53:28;94162.84;;;-0.22;100.00
15050;BME280;7622;42.724;23.250;2023-01-28T04:55:55;94159.19;;;-0.18;100.00
15050;BME280;7622;42.724;23.250;2023-01-28T04:58:23;94133.59;;;-0.45;100.00
15050;BME280;7622;42.724;23.250;2023-01-28T05:00:53;94165.66;;;-0.26;100.00
15050;BME280;7622;42.724;23.250;2023-01-28T05:03:20;94170.22;;;-0.31;100.00
15050;BME280;7622;42.724;23.250;2023-01-28T05:05:47;94168.78;;;-0.21;100.00
15050;BME280;7622;42.724;23.250;2023-01-28T05:08:13;94173.31;;;-0.12;100.00
15050;BME280;7622;42.724;23.250;2023-01-28T05:10:40;94169.84;;;-0.11;100.00
15050;BME280;7622;42.724;23.250;2023-01-28T05:13:07;94179.53;;;-0.16;100.00
15050;BME280;7622;42.724;23.250;2023-01-28T05:15:35;94178.63;;;-0.15;100.00
15050;BME280;7622;42.724;23.250;2023-01-28T05:18:02;94186.97;;;-0.13;100.00
15050;BME280;7622;42.724;23.250;2023-01-28T05:20:29;94183.72;;;-0.15;100.00
15050;BME280;7622;42.724;23.250;2023-01-28T05:22:55;94198.81;;;-0.41;100.00
15050;BME280;7622;42.724;23.250;2023-01-28T05:25:22;94203.56;;;-0.34;100.00
15050;BME280;7622;42.724;23.250;2023-01-28T05:27:49;94197.00;;;-0.24;100.00
15050;BME280;7622;42.724;23.250;2023-01-28T05:30:16;94182.25;;;-0.19;100.00
15050;BME280;7622;42.724;23.250;2023-01-28T05:32:45;94177.50;;;-0.25;100.00
15050;BME280;7622;42.724;23.250;2023-01-28T05:35:12;94196.47;;;-0.15;100.00
15050;BME280;7622;42.724;23.250;2023-01-28T05:37:38;94194.75;;;-0.15;100.00
15050;BME280;7622;42.724;23.250;2023-01-28T05:40:06;94182.59;;;-0.25;100.00
15050;BME280;7622;42.724;23.250;2023-01-28T05:42:33;94197.38;;;-0.16;100.00
15050;BME280;7622;42.724;23.250;2023-01-28T05:45:00;94212.22;;;-0.23;100.00
15050;BME280;7622;42.724;23.250;2023-01-28T05:47:27;94216.13;;;-0.31;100.00
15050;BME280;7622;42.724;23.250;2023-01-28T05:49:55;94198.44;;;-0.34;100.00
15050;BME280;7622;42.724;23.250;2023-01-28T05:52:22;94205.94;;;-0.17;100.00
15050;BME280;7622;42.724;23.250;2023-01-28T05:54:48;94201.38;;;-0.12;100.00
15050;BME280;7622;42.724;23.250;2023-01-28T05:57:15;94205.56;;;-0.11;100.00
15050;BME280;7622;42.724;23.250;2023-01-28T05:59:42;94210.13;;;-0.16;100.00
15050;BME280;7622;42.724;23.250;2023-01-28T06:02:09;94215.16;;;-0.01;100.00
15050;BME280;7622;42.724;23.250;2023-01-28T06:04:36;94224.34;;;-0.12;100.00
15050;BME280;7622;42.724;23.250;2023-01-28T06:07:04;94222.06;;;-0.03;100.00
15050;BME280;7622;42.724;23.250;2023-01-28T06:09:31;94221.63;;;0.05;100.00
15050;BME280;7622;42.724;23.250;2023-01-28T06:11:58;94233.38;;;-0.07;100.00
15050;BME280;7622;42.724;23.250;2023-01-28T06:14:25;94227.81;;;-0.13;100.00
15050;BME280;7622;42.724;23.250;2023-01-28T06:16:51;94240.94;;;-0.05;100.00
15050;BME280;7622;42.724;23.250;2023-01-28T06:19:18;94248.97;;;0.03;100.00
15050;BME280;7622;42.724;23.250;2023-01-28T06:21:45;94252.16;;;-0.08;100.00
15050;BME280;7622;42.724;23.250;2023-01-28T06:24:13;94248.22;;;-0.13;100.00
15050;BME280;7622;42.724;23.250;2023-01-28T06:26:40;94257.81;;;0.12;100.00
15050;BME280;7622;42.724;23.250;2023-01-28T06:29:06;94255.53;;;0.07;100.00
15050;BME280;7622;42.724;23.250;2023-01-28T06:31:33;94261.72;;;0.03;100.00
15050;BME280;7622;42.724;23.250;2023-01-28T06:34:00;94256.25;;;-0.05;100.00
15050;BME280;7622;42.724;23.250;2023-01-28T06:36:27;94261.44;;;0.08;100.00
15050;BME280;7622;42.724;23.250;2023-01-28T06:38:53;94266.47;;;0.23;100.00
15050;BME280;7622;42.724;23.250;2023-01-28T06:41:21;94275.03;;;0.08;100.00
15050;BME280;7622;42.724;23.250;2023-01-28T06:43:48;94276.13;;;0.04;100.00
15050;BME280;7622;42.724;23.250;2023-01-28T06:46:15;94288.25;;;0.15;100.00
15050;BME280;7622;42.724;23.250;2023-01-28T06:48:42;94288.00;;;0.05;100.00
15050;BME280;7622;42.724;23.250;2023-01-28T06:51:09;94292.91;;;0.08;100.00
15050;BME280;7622;42.724;23.250;2023-01-28T06:53:35;94294.53;;;0.09;100.00
15050;BME280;7622;42.724;23.250;2023-01-28T06:56:02;94295.09;;;0.28;100.00
15050;BME280;7622;42.724;23.250;2023-01-28T06:58:31;94289.91;;;0.30;100.00
15050;BME280;7622;42.724;23.250;2023-01-28T07:00:58;94301.75;;;0.17;100.00
15050;BME280;7622;42.724;23.250;2023-01-28T07:03:24;94302.41;;;0.20;100.00
15050;BME280;7622;42.724;23.250;2023-01-28T07:05:51;94300.19;;;0.28;100.00
15050;BME280;7622;42.724;23.250;2023-01-28T07:08:18;94305.31;;;0.28;100.00
15050;BME280;7622;42.724;23.250;2023-01-28T07:10:44;94310.25;;;0.46;100.00
15050;BME280;7622;42.724;23.250;2023-01-28T07:13:11;94318.28;;;0.39;100.00
15050;BME280;7622;42.724;23.250;2023-01-28T07:15:39;94317.53;;;0.37;100.00
15050;BME280;7622;42.724;23.250;2023-01-28T07:18:06;94314.59;;;0.58;100.00
15050;BME280;7622;42.724;23.250;2023-01-28T07:20:33;94317.44;;;0.67;100.00
15050;BME280;7622;42.724;23.250;2023-01-28T07:23:00;94317.53;;;0.66;100.00
15050;BME280;7622;42.724;23.250;2023-01-28T07:25:27;94319.56;;;0.47;100.00
15050;BME280;7622;42.724;23.250;2023-01-28T07:27:53;94320.09;;;0.52;100.00
15050;BME280;7622;42.724;23.250;2023-01-28T07:30:20;94325.38;;;0.63;100.00
15050;BME280;7622;42.724;23.250;2023-01-28T07:32:53;94328.72;;;0.77;100.00
15050;BME280;7622;42.724;23.250;2023-01-28T07:35:20;94331.66;;;0.86;100.00
15050;BME280;7622;42.724;23.250;2023-01-28T07:37:50;94335.94;;;0.85;100.00
15050;BME280;7622;42.724;23.250;2023-01-28T07:40:18;94335.88;;;0.72;100.00
15050;BME280;7622;42.724;23.250;2023-01-28T07:42:44;94340.06;;;0.88;100.00
15050;BME280;7622;42.724;23.250;2023-01-28T07:45:11;94342.34;;;0.64;100.00
15050;BME280;7622;42.724;23.250;2023-01-28T07:47:38;94352.41;;;0.67;100.00
15050;BME280;7622;42.724;23.250;2023-01-28T07:50:08;94352.94;;;0.58;100.00
15050;BME280;7622;42.724;23.250;2023-01-28T07:52:35;94337.97;;;0.80;100.00
15050;BME280;7622;42.724;23.250;2023-01-28T07:55:09;94357.50;;;0.67;100.00
15050;BME280;7622;42.724;23.250;2023-01-28T07:57:36;94356.84;;;0.63;100.00
15050;BME280;7622;42.724;23.250;2023-01-28T08:00:04;94359.53;;;0.62;100.00
15050;BME280;7622;42.724;23.250;2023-01-28T08:02:31;94356.84;;;0.63;100.00
15050;BME280;7622;42.724;23.250;2023-01-28T08:04:58;94364.63;;;0.62;100.00
15050;BME280;7622;42.724;23.250;2023-01-28T08:07:28;94363.69;;;0.77;100.00
15050;BME280;7622;42.724;23.250;2023-01-28T08:09:54;94369.53;;;0.79;100.00
15050;BME280;7622;42.724;23.250;2023-01-28T08:12:21;94363.81;;;0.75;100.00
15050;BME280;7622;42.724;23.250;2023-01-28T08:14:48;94364.97;;;0.70;100.00
15050;BME280;7622;42.724;23.250;2023-01-28T08:17:15;94379.03;;;0.77;100.00
15050;BME280;7622;42.724;23.250;2023-01-28T08:19:42;94378.47;;;0.86;100.00
15050;BME280;7622;42.724;23.250;2023-01-28T08:22:09;94366.59;;;0.85;100.00
15050;BME280;7622;42.724;23.250;2023-01-28T08:24:37;94371.09;;;0.82;100.00
15050;BME280;7622;42.724;23.250;2023-01-28T08:27:04;94388.41;;;0.91;100.00
15050;BME280;7622;42.724;23.250;2023-01-28T08:29:31;94372.91;;;0.94;100.00
15050;BME280;7622;42.724;23.250;2023-01-28T08:31:58;94381.84;;;0.87;100.00
15050;BME280;7622;42.724;23.250;2023-01-28T08:34:24;94377.31;;;1.18;100.00
15050;BME280;7622;42.724;23.250;2023-01-28T08:36:51;94370.94;;;1.11;100.00
15050;BME280;7622;42.724;23.250;2023-01-28T08:39:18;94368.81;;;1.18;100.00
15050;BME280;7622;42.724;23.250;2023-01-28T08:41:46;94378.72;;;1.24;100.00
15050;BME280;7622;42.724;23.250;2023-01-28T08:44:13;94379.72;;;1.22;100.00
15050;BME280;7622;42.724;23.250;2023-01-28T08:46:39;94384.94;;;1.47;100.00
15050;BME280;7622;42.724;23.250;2023-01-28T08:49:06;94385.53;;;1.38;100.00
15050;BME280;7622;42.724;23.250;2023-01-28T08:51:33;94381.16;;;1.26;100.00
15050;BME280;7622;42.724;23.250;2023-01-28T08:54:00;94381.66;;;1.45;100.00
15050;BME280;7622;42.724;23.250;2023-01-28T08:56:26;94394.28;;;1.34;100.00
15050;BME280;7622;42.724;23.250;2023-01-28T08:58:56;94390.66;;;1.38;100.00
15050;BME280;7622;42.724;23.250;2023-01-28T09:01:22;94385.78;;;1.60;100.00
15050;BME280;7622;42.724;23.250;2023-01-28T09:03:50;94396.28;;;1.43;100.00
15050;BME280;7622;42.724;23.250;2023-01-28T09:06:17;94392.22;;;1.53;100.00
15050;BME280;7622;42.724;23.250;2023-01-28T09:08:45;94393.25;;;1.77;100.00
15050;BME280;7622;42.724;23.250;2023-01-28T09:11:14;94394.75;;;1.80;100.00
15050;BME280;7622;42.724;23.250;2023-01-28T09:13:43;94396.59;;;1.65;100.00
15050;BME280;7622;42.724;23.250;2023-01-28T09:16:11;94394.97;;;1.50;100.00
15050;BME280;7622;42.724;23.250;2023-01-28T09:18:38;94393.72;;;1.43;100.00
15050;BME280;7622;42.724;23.250;2023-01-28T09:21:05;94393.38;;;1.62;100.00
15050;BME280;7622;42.724;23.250;2023-01-28T09:23:33;94382.63;;;1.30;100.00
15050;BME280;7622;42.724;23.250;2023-01-28T09:26:01;94396.81;;;1.48;100.00
15050;BME280;7622;42.724;23.250;2023-01-28T09:28:29;94394.47;;;1.45;100.00
15050;BME280;7622;42.724;23.250;2023-01-28T09:31:01;94389.22;;;1.46;100.00
15050;BME280;7622;42.724;23.250;2023-01-28T09:33:29;94392.03;;;1.56;100.00
15050;BME280;7622;42.724;23.250;2023-01-28T09:35:58;94391.91;;;1.45;100.00
15050;BME280;7622;42.724;23.250;2023-01-28T09:38:25;94383.47;;;1.96;100.00
15050;BME280;7622;42.724;23.250;2023-01-28T09:40:52;94378.56;;;1.93;100.00
15050;BME280;7622;42.724;23.250;2023-01-28T09:43:46;94382.03;;;1.92;100.00
15050;BME280;7622;42.724;23.250;2023-01-28T09:46:16;94383.06;;;2.03;100.00
15050;BME280;7622;42.724;23.250;2023-01-28T09:48:46;94377.59;;;1.94;100.00
15050;BME280;7622;42.724;23.250;2023-01-28T09:51:25;94386.53;;;2.02;100.00
15050;BME280;7622;42.724;23.250;2023-01-28T09:53:56;94389.41;;;1.97;100.00
15050;BME280;7622;42.724;23.250;2023-01-28T09:56:26;94384.44;;;1.81;100.00
15050;BME280;7622;42.724;23.250;2023-01-28T09:58:57;94393.69;;;1.96;100.00
15050;BME280;7622;42.724;23.250;2023-01-28T10:01:39;94388.31;;;1.74;100.00
15050;BME280;7622;42.724;23.250;2023-01-28T10:04:19;94385.22;;;1.69;100.00
15050;BME280;7622;42.724;23.250;2023-01-28T10:06:55;94380.50;;;1.63;100.00
15050;BME280;7622;42.724;23.250;2023-01-28T10:09:34;94373.84;;;1.73;100.00
15050;BME280;7622;42.724;23.250;2023-01-28T10:12:29;94371.25;;;1.87;100.00
15050;BME280;7622;42.724;23.250;2023-01-28T10:18:13;94376.25;;;1.76;100.00
15050;BME280;7622;42.724;23.250;2023-01-28T10:20:44;94367.69;;;2.03;100.00
15050;BME280;7622;42.724;23.250;2023-01-28T10:23:15;94372.47;;;1.94;100.00
15050;BME280;7622;42.724;23.250;2023-01-28T10:25:44;94374.84;;;1.97;100.00
15050;BME280;7622;42.724;23.250;2023-01-28T10:28:23;94371.53;;;1.83;100.00
15050;BME280;7622;42.724;23.250;2023-01-28T10:30:50;94372.56;;;1.80;100.00
15050;BME280;7622;42.724;23.250;2023-01-28T10:33:21;94375.09;;;2.07;100.00
15050;BME280;7622;42.724;23.250;2023-01-28T10:35:50;94381.00;;;2.08;100.00
15050;BME280;7622;42.724;23.250;2023-01-28T10:38:20;94358.19;;;2.05;100.00
15050;BME280;7622;42.724;23.250;2023-01-28T10:40:48;94373.84;;;2.00;100.00
15050;BME280;7622;42.724;23.250;2023-01-28T10:43:16;94369.66;;;2.12;100.00
15050;BME280;7622;42.724;23.250;2023-01-28T10:45:54;94363.53;;;2.14;100.00
15050;BME280;7622;42.724;23.250;2023-01-28T10:48:25;94364.81;;;1.94;100.00
15050;BME280;7622;42.724;23.250;2023-01-28T10:50:57;94373.50;;;1.79;100.00
15050;BME280;7622;42.724;23.250;2023-01-28T10:53:36;94377.16;;;1.75;100.00
15050;BME280;7622;42.724;23.250;2023-01-28T10:56:06;94371.06;;;1.90;100.00
15050;BME280;7622;42.724;23.250;2023-01-28T10:58:45;94368.31;;;1.93;100.00
15050;BME280;7622;42.724;23.250;2023-01-28T11:01:12;94371.16;;;2.02;100.00
15050;BME280;7622;42.724;23.250;2023-01-28T11:03:50;94363.47;;;1.89;100.00
15050;BME280;7622;42.724;23.250;2023-01-28T11:06:24;94363.00;;;2.09;100.00
15050;BME280;7622;42.724;23.250;2023-01-28T11:08:51;94371.38;;;1.98;100.00
15050;BME280;7622;42.724;23.250;2023-01-28T11:11:23;94370.97;;;2.05;100.00
15050;BME280;7622;42.724;23.250;2023-01-28T11:13:52;94351.31;;;2.18;100.00
15050;BME280;7622;42.724;23.250;2023-01-28T11:16:23;94368.94;;;2.22;100.00
15050;BME280;7622;42.724;23.250;2023-01-28T11:18:53;94361.97;;;2.12;100.00
15050;BME280;7622;42.724;23.250;2023-01-28T11:21:23;94375.19;;;2.06;100.00
15050;BME280;7622;42.724;23.250;2023-01-28T11:23:53;94366.09;;;2.27;100.00
15050;BME280;7622;42.724;23.250;2023-01-28T11:26:23;94362.81;;;2.37;100.00
15050;BME280;7622;42.724;23.250;2023-01-28T11:28:51;94373.28;;;2.60;100.00
15050;BME280;7622;42.724;23.250;2023-01-28T11:31:20;94369.69;;;2.50;100.00
15050;BME280;7622;42.724;23.250;2023-01-28T11:33:49;94363.94;;;2.46;100.00
15050;BME280;7622;42.724;23.250;2023-01-28T11:36:19;94364.69;;;2.48;100.00
15050;BME280;7622;42.724;23.250;2023-01-28T11:38:50;94363.13;;;2.33;100.00
15050;BME280;7622;42.724;23.250;2023-01-28T11:41:17;94363.91;;;2.08;100.00
15050;BME280;7622;42.724;23.250;2023-01-28T11:43:44;94357.50;;;2.28;100.00
15050;BME280;7622;42.724;23.250;2023-01-28T11:46:24;94355.13;;;2.50;100.00
15050;BME280;7622;42.724;23.250;2023-01-28T11:48:58;94360.16;;;2.39;100.00
15050;BME280;7622;42.724;23.250;2023-01-28T11:51:36;94363.94;;;2.71;100.00
15050;BME280;7622;42.724;23.250;2023-01-28T11:54:14;94363.44;;;2.66;100.00
15050;BME280;7622;42.724;23.250;2023-01-28T11:56:56;94359.63;;;2.59;100.00
15050;BME280;7622;42.724;23.250;2023-01-28T11:59:48;94352.97;;;2.69;100.00
15050;BME280;7622;42.724;23.250;2023-01-28T12:05:20;94351.94;;;2.59;100.00
15050;BME280;7622;42.724;23.250;2023-01-28T12:07:59;94355.53;;;2.44;100.00
15050;BME280;7622;42.724;23.250;2023-01-28T12:10:33;94355.84;;;2.65;100.00
15050;BME280;7622;42.724;23.250;2023-01-28T12:13:14;94362.59;;;2.66;100.00
15050;BME280;7622;42.724;23.250;2023-01-28T12:16:13;94363.84;;;2.48;100.00
15050;BME280;7622;42.724;23.250;2023-01-28T12:19:13;94359.34;;;2.38;100.00
15050;BME280;7622;42.724;23.250;2023-01-28T12:22:07;94353.38;;;2.51;100.00
15050;BME280;7622;42.724;23.250;2023-01-28T12:24:51;94356.88;;;2.37;100.00
15050;BME280;7622;42.724;23.250;2023-01-28T12:27:33;94355.03;;;2.26;100.00
15050;BME280;7622;42.724;23.250;2023-01-28T12:30:18;94355.44;;;2.20;100.00
15050;BME280;7622;42.724;23.250;2023-01-28T12:33:02;94360.56;;;2.20;100.00
15050;BME280;7622;42.724;23.250;2023-01-28T12:35:43;94357.25;;;2.06;100.00
15050;BME280;7622;42.724;23.250;2023-01-28T12:38:24;94365.66;;;2.08;100.00
15050;BME280;7622;42.724;23.250;2023-01-28T12:40:58;94365.38;;;2.12;100.00
15050;BME280;7622;42.724;23.250;2023-01-28T12:43:41;94365.88;;;2.17;100.00
15050;BME280;7622;42.724;23.250;2023-01-28T12:46:15;94372.41;;;2.09;100.00
15050;BME280;7622;42.724;23.250;2023-01-28T12:48:47;94367.94;;;2.25;100.00
15050;BME280;7622;42.724;23.250;2023-01-28T12:51:18;94376.03;;;2.19;100.00
15050;BME280;7622;42.724;23.250;2023-01-28T12:53:50;94372.66;;;2.31;100.00
15050;BME280;7622;42.724;23.250;2023-01-28T12:56:22;94383.91;;;2.16;100.00
15050;BME280;7622;42.724;23.250;2023-01-28T12:58:56;94385.53;;;2.17;100.00
15050;BME280;7622;42.724;23.250;2023-01-28T13:01:28;94380.00;;;2.10;100.00
15050;BME280;7622;42.724;23.250;2023-01-28T13:04:02;94383.91;;;2.16;100.00
15050;BME280;7622;42.724;23.250;2023-01-28T13:06:36;94391.72;;;2.27;100.00
15050;BME280;7622;42.724;23.250;2023-01-28T13:09:13;94392.97;;;2.34;100.00
15050;BME280;7622;42.724;23.250;2023-01-28T13:11:42;94394.44;;;2.11;100.00
15050;BME280;7622;42.724;23.250;2023-01-28T13:14:11;94397.41;;;2.05;100.00
15050;BME280;7622;42.724;23.250;2023-01-28T13:16:39;94391.34;;;1.93;100.00
15050;BME280;7622;42.724;23.250;2023-01-28T13:19:10;94399.63;;;1.84;100.00
15050;BME280;7622;42.724;23.250;2023-01-28T13:21:47;94387.72;;;1.83;100.00